Time;durP1;ratioP1;P1;durP2;ratioP2;P2;SDS_P1;SDS_P2;PMS_P1;PMS_P2;Temp;Humidity;BMP_temperature;BMP_pressure;BME280_temperature;BME280_humidity;BME280_pressure;Samples;Min_cycle;Max_cycle;Signal;HPM_P1;HPM_P2
2020/12/22 00:01:55;;;;;;;28.67;18.80;;;12.00;99.90;;;;;;4898269;29;20052;-81
2020/12/22 00:04:24;;;;;;;32.15;19.20;;;12.00;99.90;;;;;;4906743;29;20056;-80
2020/12/22 00:06:57;;;;;;;24.23;16.02;;;12.00;99.90;;;;;;4888150;29;20052;-80
2020/12/22 00:09:24;;;;;;;21.73;15.20;;;12.10;99.90;;;;;;4902237;29;20055;-81
2020/12/22 00:11:51;;;;;;;31.58;18.02;;;12.10;99.90;;;;;;4873627;29;20037;-81
2020/12/22 00:14:17;;;;;;;25.35;16.30;;;12.10;99.90;;;;;;4901434;29;20063;-81
2020/12/22 00:16:44;;;;;;;23.25;15.80;;;12.10;99.90;;;;;;4881733;29;20040;-80
2020/12/22 00:19:11;;;;;;;30.45;19.25;;;12.20;99.90;;;;;;4880124;29;20373;-81
2020/12/22 00:21:38;;;;;;;23.60;15.98;;;12.20;99.90;;;;;;4887450;29;20039;-81
2020/12/22 00:24:04;;;;;;;25.83;17.05;;;12.20;99.90;;;;;;4881916;29;20037;-81
2020/12/22 00:26:31;;;;;;;28.35;17.45;;;12.20;99.90;;;;;;4897954;29;20400;-81
2020/12/22 00:28:57;;;;;;;23.30;16.05;;;12.30;99.90;;;;;;4897193;29;20052;-80
2020/12/22 00:31:24;;;;;;;29.52;16.42;;;12.30;99.90;;;;;;4880886;29;20036;-81
2020/12/22 00:33:50;;;;;;;24.95;16.00;;;12.30;99.90;;;;;;4876455;29;20043;-81
2020/12/22 00:36:18;;;;;;;22.73;16.20;;;12.40;99.90;;;;;;4872159;29;20040;-81
2020/12/22 00:38:44;;;;;;;25.02;15.43;;;12.40;99.90;;;;;;4888615;29;20064;-80
2020/12/22 00:41:15;;;;;;;23.10;15.23;;;12.40;99.90;;;;;;4897933;29;20043;-81
2020/12/22 00:43:42;;;;;;;21.70;14.95;;;12.50;99.90;;;;;;4873345;29;20067;-81
2020/12/22 00:46:13;;;;;;;20.80;13.25;;;12.40;99.90;;;;;;4873340;29;20048;-81
2020/12/22 00:48:44;;;;;;;22.67;13.40;;;12.50;99.90;;;;;;4894379;29;20036;-81
2020/12/22 00:51:13;;;;;;;20.55;14.00;;;12.50;99.90;;;;;;4890984;29;20037;-78
2020/12/22 00:53:41;;;;;;;27.63;16.45;;;12.50;99.90;;;;;;4866098;29;20044;-81
2020/12/22 00:56:12;;;;;;;22.77;14.52;;;12.60;99.90;;;;;;4851931;29;20039;-81
2020/12/22 00:58:42;;;;;;;25.38;15.35;;;12.60;99.90;;;;;;4862142;29;20053;-81
2020/12/22 01:01:09;;;;;;;20.25;12.98;;;12.60;99.90;;;;;;4883594;29;20056;-81
2020/12/22 01:03:35;;;;;;;19.42;12.93;;;12.60;99.90;;;;;;4853602;29;20052;-81
2020/12/22 01:06:02;;;;;;;19.52;12.60;;;12.70;99.90;;;;;;4876000;29;20532;-81
2020/12/22 01:08:28;;;;;;;17.13;11.65;;;12.70;99.90;;;;;;4891684;29;20057;-78
2020/12/22 01:10:55;;;;;;;19.40;11.88;;;12.70;99.90;;;;;;4887890;29;20044;-78
2020/12/22 01:13:21;;;;;;;19.27;12.63;;;12.70;99.90;;;;;;4884695;29;20047;-78
2020/12/22 01:15:48;;;;;;;20.38;13.55;;;12.70;99.90;;;;;;4882251;29;20044;-78
2020/12/22 01:18:14;;;;;;;14.35;10.48;;;12.70;99.90;;;;;;4877292;29;20393;-79
2020/12/22 01:20:41;;;;;;;15.98;10.60;;;12.80;99.90;;;;;;4884496;29;20045;-79
2020/12/22 01:23:07;;;;;;;14.50;9.80;;;12.80;99.90;;;;;;4887197;29;20044;-78
2020/12/22 01:25:34;;;;;;;20.05;11.38;;;12.80;99.90;;;;;;4887232;29;20040;-78
2020/12/22 01:28:00;;;;;;;15.52;10.23;;;12.80;99.90;;;;;;4906091;29;20063;-78
2020/12/22 01:30:26;;;;;;;16.75;10.07;;;12.80;99.90;;;;;;4895392;29;20047;-78
2020/12/22 01:32:53;;;;;;;11.25;8.60;;;12.90;99.90;;;;;;4906419;29;20048;-78
2020/12/22 01:35:19;;;;;;;12.02;9.57;;;12.90;99.90;;;;;;4899564;29;20061;-78
2020/12/22 01:37:46;;;;;;;13.35;9.05;;;12.90;99.90;;;;;;4866950;29;20044;-81
2020/12/22 01:40:12;;;;;;;15.70;8.77;;;12.90;99.90;;;;;;4883630;29;20407;-81
2020/12/22 01:42:43;;;;;;;10.18;7.80;;;12.90;99.90;;;;;;4867971;29;20044;-81
2020/12/22 01:45:13;;;;;;;14.85;8.52;;;12.90;99.90;;;;;;4891087;29;20055;-81
2020/12/22 01:47:49;;;;;;;10.18;6.93;;;12.90;99.90;;;;;;4867694;29;20880;-81
2020/12/22 01:50:18;;;;;;;9.18;6.82;;;12.90;99.90;;;;;;4867837;29;20059;-81
2020/12/22 01:52:45;;;;;;;9.65;6.65;;;12.90;99.90;;;;;;4879254;29;20403;-81
2020/12/22 01:55:12;;;;;;;9.38;7.15;;;13.00;99.90;;;;;;4899828;29;20499;-81
2020/12/22 01:57:38;;;;;;;9.15;6.40;;;12.90;99.90;;;;;;4884994;29;20037;-81
2020/12/22 02:00:06;;;;;;;9.45;6.78;;;13.00;99.90;;;;;;4903834;29;20032;-80
2020/12/22 02:02:33;;;;;;;7.90;5.93;;;13.00;99.90;;;;;;4870217;29;20056;-81
2020/12/22 02:05:04;;;;;;;7.53;5.90;;;13.00;99.90;;;;;;4883718;29;20072;-81
2020/12/22 02:07:30;;;;;;;6.88;4.72;;;13.00;99.90;;;;;;4883843;29;20519;-81
2020/12/22 02:09:57;;;;;;;6.68;4.78;;;13.00;99.90;;;;;;4897719;29;20070;-81
2020/12/22 02:12:23;;;;;;;6.82;4.75;;;13.00;99.90;;;;;;4868599;29;20040;-80
2020/12/22 02:14:50;;;;;;;5.68;4.47;;;13.10;99.90;;;;;;4864962;29;20029;-81
2020/12/22 02:17:19;;;;;;;5.43;4.60;;;13.10;99.90;;;;;;4880679;29;20036;-81
2020/12/22 02:19:46;;;;;;;6.57;5.10;;;13.00;99.90;;;;;;4889275;29;20048;-81
2020/12/22 02:22:12;;;;;;;6.45;5.03;;;13.00;99.90;;;;;;4877082;29;20037;-81
2020/12/22 02:24:39;;;;;;;5.35;4.20;;;13.10;99.90;;;;;;4860370;29;20040;-82
2020/12/22 02:27:05;;;;;;;3.75;3.15;;;13.10;99.90;;;;;;4903000;29;20051;-77
2020/12/22 02:29:32;;;;;;;4.78;3.90;;;13.10;99.90;;;;;;4867488;29;20048;-78
2020/12/22 02:31:59;;;;;;;5.88;4.13;;;13.10;99.90;;;;;;4881706;29;20055;-77
2020/12/22 02:34:26;;;;;;;4.93;4.03;;;13.10;99.90;;;;;;4905686;29;20060;-77
2020/12/22 02:36:53;;;;;;;7.60;5.43;;;13.10;99.90;;;;;;4891969;29;20779;-77
2020/12/22 02:39:19;;;;;;;5.80;4.25;;;13.10;99.90;;;;;;4856146;29;20036;-77
2020/12/22 02:41:46;;;;;;;4.97;3.90;;;13.10;99.90;;;;;;4882090;29;20055;-77
2020/12/22 02:44:12;;;;;;;5.93;4.03;;;13.10;99.90;;;;;;4886011;29;20063;-77
2020/12/22 02:46:39;;;;;;;5.55;4.75;;;13.10;99.90;;;;;;4887324;29;20058;-77
2020/12/22 02:49:05;;;;;;;4.85;4.07;;;13.10;99.90;;;;;;4884037;29;20057;-77
2020/12/22 02:51:33;;;;;;;4.78;3.40;;;13.10;99.90;;;;;;4871364;29;20036;-77
2020/12/22 02:54:00;;;;;;;5.85;4.78;;;13.10;99.90;;;;;;4885506;29;20049;-77
2020/12/22 02:56:26;;;;;;;5.38;4.57;;;13.10;99.90;;;;;;4848186;29;20610;-77
2020/12/22 02:58:52;;;;;;;7.55;5.60;;;13.20;99.90;;;;;;4867009;29;20048;-77
2020/12/22 03:01:19;;;;;;;7.35;5.30;;;13.10;99.90;;;;;;4868030;29;20056;-80
2020/12/22 03:03:46;;;;;;;6.90;5.20;;;13.10;99.90;;;;;;4858532;29;20036;-80
2020/12/22 03:06:12;;;;;;;6.45;5.20;;;13.10;99.90;;;;;;4907112;29;20064;-80
2020/12/22 03:08:39;;;;;;;6.18;5.13;;;13.10;99.90;;;;;;4873839;29;20044;-80
2020/12/22 03:11:06;;;;;;;7.90;6.70;;;13.10;99.90;;;;;;4889688;29;20041;-80
2020/12/22 03:13:33;;;;;;;8.30;6.68;;;13.10;99.90;;;;;;4892331;29;20044;-81
2020/12/22 03:15:59;;;;;;;8.95;6.60;;;13.20;99.90;;;;;;4900437;29;20048;-80
2020/12/22 03:18:26;;;;;;;9.35;7.75;;;13.10;99.90;;;;;;4889292;29;20053;-81
2020/12/22 03:20:53;;;;;;;8.70;7.53;;;13.10;99.90;;;;;;4887790;29;20044;-80
2020/12/22 03:23:19;;;;;;;8.68;7.47;;;13.20;99.90;;;;;;4849184;29;20052;-80
2020/12/22 03:25:46;;;;;;;8.10;7.30;;;13.10;99.90;;;;;;4903071;29;20411;-80
2020/12/22 03:28:12;;;;;;;8.95;8.05;;;13.10;99.90;;;;;;4884506;29;20040;-80
2020/12/22 03:30:38;;;;;;;8.68;7.78;;;13.20;99.90;;;;;;4866967;29;20065;-81
2020/12/22 03:33:05;;;;;;;8.00;7.20;;;13.10;99.90;;;;;;4882693;29;20044;-81
2020/12/22 03:35:31;;;;;;;7.55;6.75;;;13.10;99.90;;;;;;4889256;29;20057;-80
2020/12/22 03:37:58;;;;;;;6.15;5.55;;;13.10;99.90;;;;;;4888892;29;20039;-80
2020/12/22 03:40:26;;;;;;;5.47;4.97;;;13.10;99.90;;;;;;4871544;29;20052;-81
2020/12/22 03:42:53;;;;;;;5.60;4.72;;;13.10;99.90;;;;;;4900199;29;20496;-81
2020/12/22 03:45:19;;;;;;;3.95;3.50;;;13.10;99.90;;;;;;4883685;29;20044;-81
2020/12/22 03:47:46;;;;;;;4.30;3.03;;;13.10;99.90;;;;;;4888226;29;20052;-80
2020/12/22 03:50:12;;;;;;;3.97;3.00;;;13.10;99.90;;;;;;4908181;29;20053;-81
2020/12/22 03:52:39;;;;;;;3.78;2.45;;;13.10;99.90;;;;;;4852135;29;20122;-82
2020/12/22 03:55:06;;;;;;;3.80;2.75;;;13.10;99.90;;;;;;4875658;29;20613;-82
2020/12/22 03:57:32;;;;;;;3.80;2.85;;;13.10;99.90;;;;;;4890799;29;20419;-82
2020/12/22 03:59:59;;;;;;;2.75;2.22;;;13.10;99.90;;;;;;4904172;29;20048;-82
2020/12/22 04:02:25;;;;;;;3.63;2.20;;;13.00;99.90;;;;;;4869053;29;20058;-81
2020/12/22 04:04:52;;;;;;;3.53;2.83;;;13.00;99.90;;;;;;4889372;29;20511;-81
2020/12/22 04:07:20;;;;;;;2.90;2.35;;;13.00;99.90;;;;;;4855172;29;20052;-81
2020/12/22 04:09:47;;;;;;;3.58;2.50;;;13.00;99.90;;;;;;4900121;29;20044;-81
2020/12/22 04:12:14;;;;;;;3.17;2.22;;;13.00;99.90;;;;;;4871425;29;20044;-81
2020/12/22 04:14:40;;;;;;;4.45;2.90;;;13.00;99.90;;;;;;4901676;29;20070;-81
2020/12/22 04:17:06;;;;;;;4.10;2.80;;;13.00;99.90;;;;;;4864771;29;20047;-81
2020/12/22 04:19:33;;;;;;;4.45;3.13;;;13.00;99.90;;;;;;4899007;29;20045;-81
2020/12/22 04:21:59;;;;;;;4.75;3.55;;;13.00;99.90;;;;;;4868294;29;20050;-80
2020/12/22 04:24:26;;;;;;;4.88;3.60;;;13.00;99.90;;;;;;4859886;29;20059;-81
2020/12/22 04:26:52;;;;;;;3.60;2.92;;;13.00;99.90;;;;;;4877463;29;20049;-81
2020/12/22 04:29:19;;;;;;;5.82;3.45;;;13.00;99.90;;;;;;4883937;29;20067;-82
2020/12/22 04:31:45;;;;;;;3.38;2.38;;;13.00;99.90;;;;;;4866402;29;20040;-82
2020/12/22 04:34:12;;;;;;;3.10;1.60;;;13.00;99.90;;;;;;4869490;29;20043;-82
2020/12/22 04:36:38;;;;;;;1.77;1.50;;;12.90;99.90;;;;;;4863917;29;20041;-82
2020/12/22 04:39:05;;;;;;;7.03;1.65;;;12.90;99.90;;;;;;4888250;29;20067;-81
2020/12/22 04:41:31;;;;;;;2.83;1.50;;;12.90;99.90;;;;;;4866176;29;20048;-82
2020/12/22 04:43:58;;;;;;;5.78;1.55;;;12.90;99.90;;;;;;4868671;29;20043;-81
2020/12/22 04:46:26;;;;;;;3.58;1.42;;;12.90;99.90;;;;;;4874819;29;20060;-81
2020/12/22 04:48:57;;;;;;;3.80;2.00;;;12.90;99.90;;;;;;4877686;29;20044;-81
2020/12/22 04:51:24;;;;;;;4.60;2.53;;;12.80;99.90;;;;;;4884136;29;20065;-81
2020/12/22 04:53:51;;;;;;;6.85;3.10;;;12.90;99.90;;;;;;4889690;29;20858;-80
2020/12/22 04:56:21;;;;;;;5.32;4.18;;;12.80;99.90;;;;;;4889478;29;20056;-76
2020/12/22 04:58:48;;;;;;;5.72;3.45;;;12.90;99.90;;;;;;4877845;29;20045;-77
2020/12/22 05:01:16;;;;;;;5.80;4.95;;;12.80;99.90;;;;;;4876493;29;20515;-77
2020/12/22 05:03:43;;;;;;;5.97;5.18;;;12.80;99.90;;;;;;4862813;29;20052;-76
2020/12/22 05:06:10;;;;;;;7.35;5.00;;;12.80;99.90;;;;;;4887736;29;20060;-77
2020/12/22 05:08:37;;;;;;;5.35;4.70;;;12.80;99.90;;;;;;4873441;29;20049;-77
2020/12/22 05:11:03;;;;;;;6.05;5.45;;;12.80;99.90;;;;;;4864959;29;20044;-76
2020/12/22 05:13:30;;;;;;;6.68;5.05;;;12.80;99.90;;;;;;4867885;29;20047;-77
2020/12/22 05:15:56;;;;;;;6.50;5.38;;;12.80;99.90;;;;;;4844901;29;20396;-77
2020/12/22 05:18:24;;;;;;;5.60;4.00;;;12.80;99.90;;;;;;4901714;29;20048;-77
2020/12/22 05:20:55;;;;;;;3.95;3.45;;;12.80;99.90;;;;;;4898795;29;20476;-77
2020/12/22 05:23:22;;;;;;;7.25;2.88;;;12.80;99.90;;;;;;4890026;29;20049;-77
2020/12/22 05:25:50;;;;;;;4.32;3.67;;;12.80;99.90;;;;;;4892726;29;20059;-77
2020/12/22 05:28:19;;;;;;;3.75;2.55;;;12.80;99.90;;;;;;4863713;29;20099;-77
2020/12/22 05:30:47;;;;;;;4.50;2.40;;;12.80;99.90;;;;;;4863430;29;21063;-77
2020/12/22 05:33:14;;;;;;;5.18;2.58;;;12.80;99.90;;;;;;4892604;29;20028;-76
2020/12/22 05:35:44;;;;;;;5.82;3.38;;;12.80;99.90;;;;;;4863440;29;20033;-77
2020/12/22 05:38:12;;;;;;;4.80;3.28;;;12.80;99.90;;;;;;4860447;29;20503;-77
2020/12/22 05:40:40;;;;;;;3.05;2.67;;;12.80;99.90;;;;;;4875244;29;20036;-77
2020/12/22 05:43:06;;;;;;;5.80;3.28;;;12.70;99.90;;;;;;4880479;29;20489;-77
2020/12/22 05:45:34;;;;;;;10.85;6.50;;;12.70;99.90;;;;;;4874784;29;20257;-77
2020/12/22 05:48:02;;;;;;;9.30;4.22;;;12.70;99.90;;;;;;4873996;29;20529;-77
2020/12/22 05:50:28;;;;;;;6.60;3.65;;;12.70;99.90;;;;;;4860242;29;20041;-77
2020/12/22 05:52:56;;;;;;;8.02;4.10;;;12.70;99.90;;;;;;4850016;29;20033;-77
2020/12/22 05:55:28;;;;;;;7.43;3.90;;;12.70;99.90;;;;;;4848605;29;20048;-77
2020/12/22 05:58:12;;;;;;;4.38;3.90;;;12.70;99.90;;;;;;4871475;29;20040;-77
2020/12/22 06:00:40;;;;;;;9.25;3.67;;;12.70;99.90;;;;;;4880607;29;20043;-77
2020/12/22 06:03:12;;;;;;;6.55;3.25;;;12.70;99.90;;;;;;4856733;29;20049;-77
2020/12/22 06:05:45;;;;;;;3.70;2.00;;;12.70;99.90;;;;;;4886913;29;20056;-79
2020/12/22 06:08:14;;;;;;;6.25;2.75;;;12.60;99.90;;;;;;4886451;29;20293;-77
2020/12/22 06:10:42;;;;;;;6.97;3.10;;;12.70;99.90;;;;;;4893997;29;20040;-81
2020/12/22 06:13:11;;;;;;;4.82;1.98;;;12.70;99.90;;;;;;4887731;29;20408;-81
2020/12/22 06:15:39;;;;;;;5.82;2.17;;;12.70;99.90;;;;;;4851970;29;20037;-81
2020/12/22 06:18:06;;;;;;;4.25;1.90;;;12.70;99.90;;;;;;4895396;29;20048;-81
2020/12/22 06:20:33;;;;;;;6.28;2.40;;;12.70;99.90;;;;;;4859761;29;20049;-82
2020/12/22 06:23:02;;;;;;;9.60;3.53;;;12.70;99.90;;;;;;4897864;29;20041;-80
2020/12/22 06:25:29;;;;;;;7.70;3.08;;;12.70;99.90;;;;;;4867516;29;20047;-81
2020/12/22 06:27:55;;;;;;;6.93;3.70;;;12.70;99.90;;;;;;4898556;29;20517;-80
2020/12/22 06:30:51;;;;;;;9.57;3.63;;;12.70;99.90;;;;;;4901512;29;20058;-81
2020/12/22 06:33:26;;;;;;;7.03;4.15;;;12.70;99.90;;;;;;4872684;29;20049;-81
2020/12/22 06:36:10;;;;;;;12.63;6.43;;;12.70;99.90;;;;;;4870973;29;20044;-81
2020/12/22 06:38:53;;;;;;;16.05;8.90;;;12.70;99.90;;;;;;4897509;29;20503;-81
2020/12/22 06:41:34;;;;;;;14.77;9.98;;;12.70;99.90;;;;;;4898213;29;20425;-81
2020/12/22 06:44:16;;;;;;;17.02;10.88;;;12.70;99.90;;;;;;4891216;29;20065;-81
2020/12/22 06:46:45;;;;;;;21.55;12.05;;;12.70;99.90;;;;;;4881335;29;20067;-81
2020/12/22 06:49:13;;;;;;;22.00;13.40;;;12.70;99.90;;;;;;4900228;29;20052;-80
2020/12/22 06:51:41;;;;;;;23.73;13.95;;;12.70;99.90;;;;;;4895100;29;20040;-80
2020/12/22 06:54:14;;;;;;;22.42;13.88;;;12.70;99.90;;;;;;4898996;29;20032;-80
2020/12/22 06:56:41;;;;;;;23.73;13.88;;;12.70;99.90;;;;;;4899689;29;20055;-80
2020/12/22 06:59:12;;;;;;;22.05;13.45;;;12.80;99.90;;;;;;4866562;29;20849;-80
2020/12/22 07:01:45;;;;;;;22.02;13.98;;;12.70;99.90;;;;;;4880569;29;20488;-80
2020/12/22 07:04:14;;;;;;;18.95;12.90;;;12.70;99.90;;;;;;4896278;29;20051;-80
2020/12/22 07:06:47;;;;;;;20.48;12.75;;;12.70;99.90;;;;;;4876567;29;20060;-80
2020/12/22 07:09:21;;;;;;;23.92;12.02;;;12.70;99.90;;;;;;4888746;29;20054;-80
2020/12/22 07:11:50;;;;;;;17.55;10.10;;;12.70;99.90;;;;;;4889991;29;20053;-80
2020/12/22 07:14:22;;;;;;;15.65;9.73;;;12.70;99.90;;;;;;4882486;29;20510;-80
2020/12/22 07:16:58;;;;;;;17.45;8.48;;;12.70;99.90;;;;;;4879988;29;20052;-80
2020/12/22 07:19:29;;;;;;;11.77;7.22;;;12.70;99.90;;;;;;4855237;29;20041;-80
2020/12/22 07:22:00;;;;;;;13.82;5.88;;;12.60;99.90;;;;;;4864528;29;20048;-80
2020/12/22 07:24:28;;;;;;;15.48;5.50;;;12.60;99.90;;;;;;4880810;29;20048;-80
2020/12/22 07:26:55;;;;;;;10.88;3.90;;;12.60;99.90;;;;;;4865945;29;20044;-80
2020/12/22 07:29:22;;;;;;;9.95;4.00;;;12.50;99.90;;;;;;4865294;29;20056;-82
2020/12/22 07:31:49;;;;;;;12.00;3.38;;;12.50;99.90;;;;;;4863656;29;20040;-81
2020/12/22 07:34:15;;;;;;;9.75;3.20;;;12.60;99.90;;;;;;4894808;29;20052;-80
2020/12/22 07:36:42;;;;;;;8.80;2.58;;;12.50;99.90;;;;;;4874208;29;20476;-80
2020/12/22 07:39:21;;;;;;;7.28;2.10;;;12.50;99.90;;;;;;4863593;29;20048;-80
2020/12/22 07:41:49;;;;;;;6.30;1.90;;;12.50;99.90;;;;;;4896211;29;20040;-80
2020/12/22 07:44:21;;;;;;;12.18;1.50;;;12.50;99.90;;;;;;4886681;29;20056;-80
2020/12/22 07:46:52;;;;;;;10.80;1.67;;;12.50;99.90;;;;;;4895672;29;20048;-79
2020/12/22 07:49:19;;;;;;;8.85;0.90;;;12.50;99.90;;;;;;4895833;29;20045;-80
2020/12/22 07:51:48;;;;;;;8.38;0.90;;;12.50;99.90;;;;;;4883282;29;20051;-79
2020/12/22 07:54:16;;;;;;;8.45;1.15;;;12.50;99.90;;;;;;4881790;29;20617;-80
2020/12/22 07:56:44;;;;;;;11.02;1.25;;;12.50;99.90;;;;;;4894899;29;20049;-79
2020/12/22 07:59:13;;;;;;;8.82;0.90;;;12.50;99.90;;;;;;4885157;29;20048;-80
2020/12/22 08:01:45;;;;;;;7.80;0.57;;;12.40;99.90;;;;;;4893383;29;20044;-80
2020/12/22 08:04:11;;;;;;;5.97;0.60;;;12.40;99.90;;;;;;4875549;29;20037;-80
2020/12/22 08:06:39;;;;;;;6.28;0.68;;;12.40;99.90;;;;;;4874063;29;20538;-79
2020/12/22 08:09:06;;;;;;;3.63;0.43;;;12.40;99.90;;;;;;4872960;29;20496;-79
2020/12/22 08:11:34;;;;;;;7.25;0.80;;;12.40;99.90;;;;;;4826467;29;20033;-79
2020/12/22 08:14:04;;;;;;;7.57;0.60;;;12.40;99.90;;;;;;4870736;29;20045;-79
2020/12/22 08:16:33;;;;;;;5.78;0.70;;;12.40;99.90;;;;;;4865021;29;20044;-79
2020/12/22 08:19:03;;;;;;;6.25;0.70;;;12.30;99.90;;;;;;4851420;29;20051;-79
2020/12/22 08:21:31;;;;;;;6.82;0.82;;;12.30;99.90;;;;;;4864595;29;20829;-78
2020/12/22 08:23:58;;;;;;;8.93;0.77;;;12.30;99.90;;;;;;4876582;29;20040;-79
2020/12/22 08:26:25;;;;;;;7.93;0.60;;;12.30;99.90;;;;;;4874925;29;20060;-80
2020/12/22 08:28:54;;;;;;;8.98;0.73;;;12.30;99.90;;;;;;4850104;29;20405;-79
2020/12/22 08:31:23;;;;;;;9.23;1.85;;;12.30;99.90;;;;;;4867731;29;20040;-79
2020/12/22 08:33:52;;;;;;;9.95;1.45;;;12.30;99.90;;;;;;4865483;29;20049;-79
2020/12/22 08:36:20;;;;;;;7.38;0.88;;;12.30;99.90;;;;;;4871185;29;20051;-80
2020/12/22 08:38:48;;;;;;;13.80;1.00;;;12.30;99.90;;;;;;4844095;29;20500;-80
2020/12/22 08:41:21;;;;;;;10.00;0.98;;;12.30;99.90;;;;;;4863397;29;20053;-76
2020/12/22 08:43:52;;;;;;;13.65;0.95;;;12.30;99.90;;;;;;4857870;29;20043;-76
2020/12/22 08:46:22;;;;;;;13.43;1.13;;;12.30;99.90;;;;;;4858099;29;20048;-78
2020/12/22 08:48:48;;;;;;;11.93;1.00;;;12.40;99.90;;;;;;4871700;29;20036;-80
2020/12/22 08:51:26;;;;;;;12.30;1.23;;;12.40;99.70;;;;;;4831535;29;20045;-78
2020/12/22 08:53:53;;;;;;;10.85;1.52;;;12.40;99.70;;;;;;4843787;29;20040;-79
2020/12/22 08:56:24;;;;;;;16.80;1.40;;;12.40;99.90;;;;;;4871780;29;20064;-79
2020/12/22 08:59:00;;;;;;;7.95;0.90;;;12.40;99.50;;;;;;4862450;29;20572;-79
2020/12/22 09:01:51;;;;;;;9.55;0.95;;;12.40;99.50;;;;;;4838481;29;20038;-79
2020/12/22 09:04:31;;;;;;;14.65;1.10;;;12.40;99.40;;;;;;4885652;29;20040;-79
2020/12/22 09:06:58;;;;;;;9.73;0.85;;;12.30;99.70;;;;;;4866226;29;20052;-79
2020/12/22 09:09:32;;;;;;;11.88;1.15;;;12.30;99.40;;;;;;4826296;29;20044;-79
2020/12/22 09:12:10;;;;;;;10.80;1.38;;;12.30;99.40;;;;;;4871372;29;20041;-79
2020/12/22 09:14:41;;;;;;;13.98;1.20;;;12.30;99.40;;;;;;4879739;29;20496;-79
2020/12/22 09:17:10;;;;;;;17.37;1.00;;;12.30;99.40;;;;;;4871221;29;20041;-79
2020/12/22 09:19:43;;;;;;;12.70;1.33;;;12.30;99.70;;;;;;4863665;29;20459;-80
2020/12/22 09:22:10;;;;;;;11.52;1.13;;;12.40;99.40;;;;;;4855612;29;20524;-80
2020/12/22 09:24:37;;;;;;;12.85;1.25;;;12.30;99.40;;;;;;4875097;29;20052;-79
2020/12/22 09:27:12;;;;;;;14.25;1.17;;;12.30;99.30;;;;;;4851495;29;20036;-79
2020/12/22 09:29:40;;;;;;;15.60;1.70;;;12.30;99.30;;;;;;4860779;29;20041;-79
2020/12/22 09:32:11;;;;;;;14.02;1.45;;;12.30;99.20;;;;;;4859826;29;20032;-79
2020/12/22 09:34:39;;;;;;;13.98;1.30;;;12.30;99.20;;;;;;4879327;29;20048;-79
2020/12/22 09:37:07;;;;;;;9.77;1.30;;;12.30;99.20;;;;;;4868829;29;20049;-79
2020/12/22 09:39:38;;;;;;;14.82;1.48;;;12.30;99.20;;;;;;4872240;29;20041;-80
2020/12/22 09:42:05;;;;;;;9.77;1.10;;;12.30;99.10;;;;;;4875408;29;20059;-79
2020/12/22 09:44:32;;;;;;;12.75;1.25;;;12.30;99.10;;;;;;4858161;29;20387;-79
2020/12/22 09:46:59;;;;;;;12.88;1.00;;;12.40;99.20;;;;;;4858401;29;20037;-80
2020/12/22 09:49:26;;;;;;;12.70;1.83;;;12.40;99.20;;;;;;4875502;29;20126;-80
2020/12/22 09:51:53;;;;;;;15.23;3.03;;;12.40;99.20;;;;;;4873047;29;20048;-79
2020/12/22 09:54:20;;;;;;;18.50;1.92;;;12.40;99.10;;;;;;4886592;29;20393;-80
2020/12/22 09:56:48;;;;;;;15.88;1.45;;;12.40;99.00;;;;;;4821708;29;20045;-78
2020/12/22 09:59:18;;;;;;;15.40;1.90;;;12.40;99.00;;;;;;4885191;29;20052;-80
2020/12/22 10:01:46;;;;;;;13.85;1.77;;;12.40;99.00;;;;;;4870696;29;20052;-79
2020/12/22 10:04:12;;;;;;;16.75;2.88;;;12.50;99.00;;;;;;4860252;29;20041;-79
2020/12/22 10:06:39;;;;;;;12.88;1.55;;;12.50;98.90;;;;;;4878721;29;20048;-79
2020/12/22 10:09:06;;;;;;;10.77;1.08;;;12.50;98.80;;;;;;4877963;29;20051;-78
2020/12/22 10:11:35;;;;;;;17.33;2.00;;;12.50;98.80;;;;;;4877935;29;20503;-78
2020/12/22 10:14:03;;;;;;;9.35;1.55;;;12.50;98.80;;;;;;4878571;29;20047;-78
2020/12/22 10:16:31;;;;;;;11.60;1.48;;;12.50;98.80;;;;;;4889506;29;20511;-79
2020/12/22 10:19:01;;;;;;;15.70;2.10;;;12.50;98.70;;;;;;4890931;29;20045;-79
2020/12/22 10:21:27;;;;;;;12.50;1.58;;;12.60;98.70;;;;;;4892755;29;20043;-79
2020/12/22 10:24:16;;;;;;;20.02;2.58;;;12.60;98.60;;;;;;4846009;29;20052;-79
2020/12/22 10:26:41;;;;;;;10.32;1.40;;;12.60;98.50;;;;;;4862075;29;20091;-79
2020/12/22 10:29:07;;;;;;;12.82;1.35;;;12.60;98.50;;;;;;4892584;29;20056;-79
2020/12/22 10:31:34;;;;;;;14.30;1.38;;;12.70;98.40;;;;;;4895003;29;20051;-79
2020/12/22 10:34:00;;;;;;;10.40;1.33;;;12.70;98.20;;;;;;4885271;29;20032;-79
2020/12/22 10:36:27;;;;;;;11.35;1.42;;;12.70;98.20;;;;;;4877189;29;20037;-79
2020/12/22 10:38:55;;;;;;;11.00;1.60;;;12.70;98.10;;;;;;4879888;29;20049;-79
2020/12/22 10:41:22;;;;;;;12.95;1.63;;;12.70;98.10;;;;;;4865830;29;20048;-79
2020/12/22 10:43:50;;;;;;;12.45;2.47;;;12.70;98.00;;;;;;4869137;29;20059;-78
2020/12/22 10:46:17;;;;;;;13.00;2.80;;;12.70;97.90;;;;;;4890357;29;20500;-79
2020/12/22 10:48:44;;;;;;;14.77;2.70;;;12.70;97.90;;;;;;4852068;29;20048;-79
2020/12/22 10:51:12;;;;;;;11.73;3.33;;;12.70;98.00;;;;;;4887427;29;20047;-79
2020/12/22 10:53:39;;;;;;;10.02;2.30;;;12.70;97.90;;;;;;4866473;29;20037;-79
2020/12/22 10:56:14;;;;;;;8.88;2.35;;;12.70;97.90;;;;;;4851323;29;20052;-79
2020/12/22 10:58:41;;;;;;;15.80;3.05;;;12.70;97.90;;;;;;4889426;29;20059;-79
2020/12/22 11:01:08;;;;;;;11.13;2.50;;;12.70;97.90;;;;;;4847072;29;20047;-79
2020/12/22 11:03:34;;;;;;;10.15;2.70;;;12.70;97.90;;;;;;4897802;29;20036;-79
2020/12/22 11:06:06;;;;;;;10.77;3.17;;;12.70;98.00;;;;;;4848939;29;20095;-80
2020/12/22 11:08:32;;;;;;;7.90;2.42;;;12.70;97.90;;;;;;4894109;29;20036;-79
2020/12/22 11:10:59;;;;;;;12.85;3.60;;;12.70;97.90;;;;;;4853527;29;20040;-79
2020/12/22 11:13:26;;;;;;;9.52;3.63;;;12.70;98.00;;;;;;4862192;29;20832;-79
2020/12/22 11:15:52;;;;;;;10.85;3.28;;;12.80;97.90;;;;;;4893560;29;20043;-79
2020/12/22 11:18:18;;;;;;;12.77;4.20;;;12.70;97.90;;;;;;4862076;29;20047;-79
2020/12/22 11:20:45;;;;;;;10.95;2.47;;;12.70;97.90;;;;;;4877502;29;20045;-79
2020/12/22 11:23:12;;;;;;;9.82;1.88;;;12.70;97.70;;;;;;4895616;29;20053;-79
2020/12/22 11:25:38;;;;;;;7.25;1.42;;;12.60;97.70;;;;;;4879867;29;20052;-79
2020/12/22 11:28:04;;;;;;;8.77;1.00;;;12.50;97.80;;;;;;4845941;29;20052;-79
2020/12/22 11:30:31;;;;;;;5.35;0.73;;;12.50;97.70;;;;;;4890852;29;20047;-79
2020/12/22 11:32:57;;;;;;;5.97;0.68;;;12.40;97.70;;;;;;4867187;29;20036;-80
2020/12/22 11:35:24;;;;;;;3.83;0.63;;;12.40;97.70;;;;;;4848399;29;20040;-79
2020/12/22 11:37:50;;;;;;;4.85;0.60;;;12.30;97.70;;;;;;4845166;29;20032;-79
2020/12/22 11:40:17;;;;;;;4.75;0.57;;;12.30;97.80;;;;;;4896534;29;20037;-79
2020/12/22 11:42:44;;;;;;;4.70;0.70;;;12.20;97.80;;;;;;4864103;29;20040;-79
2020/12/22 11:45:10;;;;;;;2.38;0.70;;;12.20;97.70;;;;;;4853890;29;20037;-79
2020/12/22 11:47:36;;;;;;;4.55;1.00;;;12.10;97.60;;;;;;4876509;29;20046;-78
2020/12/22 11:50:03;;;;;;;3.78;1.00;;;12.10;97.60;;;;;;4881817;29;20044;-78
2020/12/22 11:52:31;;;;;;;3.25;1.15;;;12.00;97.60;;;;;;4880600;29;20049;-78
2020/12/22 11:54:58;;;;;;;4.03;0.57;;;12.00;97.60;;;;;;4868527;29;20522;-78
2020/12/22 11:57:24;;;;;;;4.03;1.00;;;11.90;97.60;;;;;;4882011;29;20052;-77
2020/12/22 11:59:51;;;;;;;2.92;0.80;;;11.90;97.60;;;;;;4892735;29;20048;-78
2020/12/22 12:02:17;;;;;;;2.03;0.40;;;11.90;97.70;;;;;;4880707;29;20040;-80
2020/12/22 12:04:43;;;;;;;4.55;0.60;;;11.90;97.70;;;;;;4871099;29;20040;-79
2020/12/22 12:07:12;;;;;;;2.92;0.43;;;11.90;97.60;;;;;;4887982;29;20431;-78
2020/12/22 12:09:38;;;;;;;1.92;0.47;;;11.90;97.60;;;;;;4878575;29;20487;-78
2020/12/22 12:12:05;;;;;;;2.15;0.60;;;11.90;97.60;;;;;;4870169;29;20080;-79
2020/12/22 12:14:32;;;;;;;2.20;0.68;;;11.90;97.50;;;;;;4876354;29;20048;-78
2020/12/22 12:16:58;;;;;;;1.95;0.70;;;11.80;97.50;;;;;;4868036;29;20033;-79
2020/12/22 12:19:26;;;;;;;1.60;0.40;;;11.80;97.50;;;;;;4847076;29;20048;-78
2020/12/22 12:21:55;;;;;;;5.65;0.43;;;11.80;97.50;;;;;;4876416;29;20056;-78
2020/12/22 12:24:22;;;;;;;3.03;0.70;;;11.80;97.50;;;;;;4848202;29;20055;-78
2020/12/22 12:26:48;;;;;;;1.67;0.50;;;11.80;97.40;;;;;;4878945;29;20043;-78
2020/12/22 12:29:15;;;;;;;3.33;0.85;;;11.80;97.40;;;;;;4867081;29;20071;-78
2020/12/22 12:31:41;;;;;;;1.85;0.90;;;11.70;97.30;;;;;;4865988;29;20055;-78
2020/12/22 12:34:08;;;;;;;6.00;0.80;;;11.70;97.30;;;;;;4851151;29;20036;-79
2020/12/22 12:36:35;;;;;;;2.53;1.00;;;11.60;97.20;;;;;;4835262;29;20056;-79
2020/12/22 12:39:04;;;;;;;2.42;0.77;;;11.50;97.20;;;;;;4879815;29;20048;-78
2020/12/22 12:41:30;;;;;;;2.92;1.20;;;11.50;97.30;;;;;;4879090;29;20052;-78
2020/12/22 12:43:57;;;;;;;3.88;1.35;;;11.50;97.30;;;;;;4882062;29;20048;-77
2020/12/22 12:46:25;;;;;;;4.30;2.00;;;11.50;97.40;;;;;;4869032;29;20064;-79